Weather - Helsinki Query any day in the database

Current weather  

Weather data for a selected day (2006-01-01 -2020-10-31)
Enter date:     <-     scroll days         ->
day curves
Low temperature°C -1.023:50
High temperature°C +5.011:20
Low wind chill°C -6.723:20
Average temperature°C +2.0 
High wind speed (10 min) m/s 13.017:50
Low pressurehPa 999.011:20
High pressurehPa 1009.023:50
Low R.H% 4019:20
High R.H% 8612:50
Day weather data as a table
Date Time Temp
°C
Chill
°C
Pressure
hPA
Wind
m/s
Hum
%
Precip
mm
2012-03-13 23:50:00 -1.0  -6.2  1009.0 5.0 58 -
2012-03-13 23:20:00 -1.0  -6.7  1009.0 6.0 58 -
2012-03-13 22:50:00 0.0  -5.5  1009.0 6.0 54 -
2012-03-13 22:20:00 0.0  -5.9  1009.0 7.0 46 -
2012-03-13 21:50:00 0.0  -5.9  1008.0 7.0 50 -
2012-03-13 20:50:00 0.0  -5.9  1008.0 7.0 46 -
2012-03-13 20:20:00 1.0  -5.4  1007.0 9.0 40 -
2012-03-13 19:50:00 1.0  -5.4  1007.0 9.0 40 -
2012-03-13 19:20:00 2.0  -4.1  1006.0 9.0 40 -
2012-03-13 18:20:00 2.0  -4.4  1005.0 10.0 43 -
2012-03-13 17:50:00 3.0  -3.9  1005.0 13.0 47 -
2012-03-13 16:50:00 3.0  -3.1  1003.0 10.0 51 -
2012-03-13 16:20:00 3.0  -3.4  1003.0 11.0 55 -
2012-03-13 15:50:00 2.0  -4.1  1002.0 9.0 69 -
2012-03-13 14:50:00 2.0  -3.7  1001.0 8.0 69 -
2012-03-13 12:50:00 1.0  -6.3  1000.0 12.0 86 -
2012-03-13 12:20:00 1.0  -5.7  1000.0 10.0 86 -
2012-03-13 11:20:00 5.0  -0.4  999.0 10.0 52 -
2012-03-13 10:50:00 5.0  -0.4  999.0 10.0 56 -
2012-03-13 10:20:00 5.0  0.2  1000.0 8.0 56 -
2012-03-13 09:50:00 5.0  0.5  1000.0 7.0 56 -
2012-03-13 08:50:00 4.0  -1.1  1000.0 8.0 69 -
2012-03-13 08:20:00 4.0  -1.1  1000.0 8.0 69 -
2012-03-13 07:20:00 1.0  -3.7  1001.0 5.0 80 -
2012-03-13 06:50:00 1.0  -3.1  1002.0 4.0 80 -
2012-03-13 06:20:00 0.0  -3.5  1002.0 3.0 86 -
2012-03-13 05:50:00 0.0  -4.3  1002.0 4.0 80 -
2012-03-13 05:20:00 0.0  -4.3  1003.0 4.0 80 -
2012-03-13 04:20:00 2.0  -2.4  1003.0 5.0 64 -
2012-03-13 03:50:00 2.0  -2.9  1003.0 6.0 64 -
2012-03-13 02:50:00 3.0  -2.1  1004.0 7.0 59 -
2012-03-13 02:20:00 3.0  -2.1  1004.0 7.0 59 -
2012-03-13 01:50:00 3.0  -2.4  1004.0 8.0 59 -
2012-03-13 01:20:00 3.0  -2.4  1004.0 8.0 59 -
2012-03-13 00:50:00 3.0  -2.1  1004.0 7.0 59 -
2012-03-13 00:20:00 3.0  -2.1  1004.0 7.0 59 -
Unit conversions: